createdAt,value
2019-03-19T00:00:43.244Z,67.71
2019-03-19T00:04:51.073Z,67.07
2019-03-19T00:08:59.208Z,68.62
2019-03-19T00:13:06.822Z,69.53
2019-03-19T00:17:14.921Z,69.50
2019-03-19T00:21:22.629Z,69.34
2019-03-19T00:25:30.721Z,69.59
2019-03-19T00:29:38.351Z,69.68
2019-03-19T00:33:47.022Z,70.21
2019-03-19T00:37:55.097Z,70.05
2019-03-19T00:42:03.116Z,69.82
2019-03-19T00:46:11.448Z,69.71
2019-03-19T00:50:19.861Z,70.04
2019-03-19T00:54:28.089Z,70.75
2019-03-19T00:58:35.625Z,72.38
2019-03-19T01:02:43.501Z,71.70
2019-03-19T01:06:51.615Z,71.20
2019-03-19T01:10:59.342Z,71.63
2019-03-19T01:15:08.281Z,71.44
2019-03-19T01:19:16.374Z,71.42
2019-03-19T01:23:23.984Z,71.20
2019-03-19T01:27:32.300Z,70.88
2019-03-19T01:31:40.133Z,71.34
2019-03-19T01:35:47.726Z,71.40
2019-03-19T01:39:55.844Z,72.27
2019-03-19T01:44:03.547Z,71.90
2019-03-19T01:48:11.158Z,71.82
2019-03-19T01:52:19.261Z,72.12
2019-03-19T01:56:27.064Z,72.02
2019-03-19T02:00:34.989Z,72.62
2019-03-19T02:04:43.127Z,72.46
2019-03-19T02:08:50.716Z,73.70
2019-03-19T02:12:58.940Z,73.75
2019-03-19T02:17:07.158Z,72.95
2019-03-19T02:21:14.856Z,71.80
2019-03-19T02:25:23.278Z,72.36
2019-03-19T02:29:32.017Z,73.33
2019-03-19T02:33:39.722Z,73.40
2019-03-19T02:37:47.945Z,72.82
2019-03-19T02:41:55.654Z,73.70
2019-03-19T02:46:03.444Z,73.77
2019-03-19T02:50:11.689Z,73.20
2019-03-19T02:54:19.489Z,72.29
2019-03-19T02:58:27.612Z,72.59
2019-03-19T03:02:35.915Z,72.62
2019-03-19T03:06:43.638Z,72.49
2019-03-19T03:10:51.765Z,72.44
2019-03-19T03:14:59.468Z,73.18
2019-03-19T03:19:07.065Z,73.06
2019-03-19T03:23:14.889Z,73.00
2019-03-19T03:27:22.617Z,73.01
2019-03-19T03:31:30.289Z,73.27
2019-03-19T03:35:38.012Z,74.09
2019-03-19T03:39:45.714Z,74.08
2019-03-19T03:43:53.921Z,73.65
2019-03-19T03:48:02.136Z,74.35
2019-03-19T03:52:09.862Z,74.00
2019-03-19T03:56:18.184Z,74.38
2019-03-19T04:00:26.099Z,73.57
2019-03-19T04:04:33.634Z,72.95
2019-03-19T04:08:41.706Z,72.97
2019-03-19T04:12:49.866Z,73.47
2019-03-19T04:16:57.432Z,74.32
2019-03-19T04:21:05.142Z,73.58
2019-03-19T04:25:13.018Z,73.98
2019-03-19T04:29:20.858Z,74.22
2019-03-19T04:33:28.696Z,74.46
2019-03-19T04:37:36.384Z,73.85
2019-03-19T04:41:43.991Z,74.12
2019-03-19T04:45:51.979Z,74.14
2019-03-19T04:49:59.714Z,73.85
2019-03-19T04:54:07.433Z,73.74
2019-03-19T04:58:15.325Z,73.78
2019-03-19T05:02:23.032Z,73.56
2019-03-19T05:06:31.262Z,74.83
2019-03-19T05:10:39.049Z,75.26
2019-03-19T05:18:52.951Z,73.65
2019-03-19T05:23:00.709Z,73.18
2019-03-19T05:27:08.874Z,72.72
2019-03-19T05:31:17.190Z,72.50
2019-03-19T05:35:24.894Z,71.95
2019-03-19T05:39:32.615Z,70.87
2019-03-19T05:43:40.436Z,69.86
2019-03-19T05:47:48.128Z,67.22
2019-03-19T05:51:56.032Z,67.04
2019-03-19T05:56:04.464Z,64.27
2019-03-19T06:00:12.802Z,63.90
2019-03-19T06:04:20.507Z,63.71
2019-03-19T06:08:28.110Z,60.95
2019-03-19T06:12:35.860Z,58.67
2019-03-19T06:16:43.623Z,56.54
2019-03-19T06:20:51.363Z,57.66
2019-03-19T06:24:59.111Z,56.23
2019-03-19T06:29:07.333Z,56.08
2019-03-19T06:33:15.063Z,55.39
2019-03-19T06:37:22.776Z,53.54
2019-03-19T06:41:30.489Z,52.48
2019-03-19T06:45:38.079Z,53.66
2019-03-19T06:49:46.207Z,53.39
2019-03-19T06:53:54.163Z,53.43
2019-03-19T06:58:10.492Z,53.86
2019-03-19T07:02:11.990Z,53.44
2019-03-19T07:06:19.815Z,53.64
2019-03-19T07:10:27.398Z,54.54
2019-03-19T07:14:35.307Z,52.69
2019-03-19T07:18:43.017Z,52.69
2019-03-19T07:22:50.831Z,53.43
2019-03-19T07:26:58.641Z,51.77
2019-03-19T07:31:06.329Z,52.15
2019-03-19T07:35:14.260Z,52.15
2019-03-19T07:39:22.067Z,50.06
2019-03-19T07:43:29.789Z,49.17
2019-03-19T07:47:37.512Z,47.69
2019-03-19T07:51:45.188Z,48.18
2019-03-19T07:55:53.567Z,47.08
2019-03-19T08:00:01.414Z,49.24
2019-03-19T08:04:10.669Z,47.13
2019-03-19T08:08:19.297Z,46.88
2019-03-19T08:12:27.525Z,49.02
2019-03-19T08:16:35.442Z,47.43
2019-03-19T08:20:43.138Z,45.77
2019-03-19T08:24:50.896Z,44.60
2019-03-19T08:28:58.562Z,45.08
2019-03-19T08:33:06.262Z,44.32
2019-03-19T08:37:15.601Z,44.11
2019-03-19T08:41:23.321Z,45.78
2019-03-19T08:45:31.635Z,43.18
2019-03-19T08:49:39.962Z,43.24
2019-03-19T08:53:47.654Z,44.83
2019-03-19T08:57:56.823Z,45.13
2019-03-19T09:02:04.724Z,42.59
2019-03-19T09:06:12.749Z,43.24
2019-03-19T09:10:21.363Z,42.42
2019-03-19T09:14:28.968Z,44.57
2019-03-19T09:18:36.671Z,43.92
2019-03-19T09:22:44.502Z,43.62
2019-03-19T09:26:52.177Z,42.67
2019-03-19T09:31:00.518Z,42.04
2019-03-19T09:35:08.516Z,42.43
2019-03-19T09:39:17.267Z,43.62
2019-03-19T09:43:25.489Z,44.63
2019-03-19T09:47:33.204Z,43.64
2019-03-19T09:51:40.988Z,41.05
2019-03-19T09:55:48.683Z,41.38
2019-03-19T09:59:57.029Z,41.96
2019-03-19T10:04:04.733Z,42.14
2019-03-19T10:08:12.552Z,42.22
2019-03-19T10:12:20.399Z,42.94
2019-03-19T10:16:28.014Z,43.21
2019-03-19T10:20:36.095Z,43.15
2019-03-19T10:24:43.790Z,43.38
2019-03-19T10:28:51.497Z,44.65
2019-03-19T10:32:59.313Z,46.86
2019-03-19T10:37:07.020Z,47.53
2019-03-19T10:41:16.070Z,46.65
2019-03-19T10:45:23.872Z,46.94
2019-03-19T10:49:32.685Z,47.22
2019-03-19T10:53:40.499Z,47.22
2019-03-19T10:57:48.821Z,46.20
2019-03-19T11:01:56.530Z,47.50
2019-03-19T11:06:04.559Z,48.27
2019-03-19T11:10:12.696Z,45.44
2019-03-19T11:14:20.483Z,48.00
2019-03-19T11:18:28.691Z,48.50
2019-03-19T11:22:36.310Z,47.01
2019-03-19T11:26:44.292Z,49.76
2019-03-19T11:30:52.731Z,47.75
2019-03-19T11:35:00.486Z,46.96
2019-03-19T11:39:10.375Z,46.19
2019-03-19T11:43:18.118Z,44.20
2019-03-19T11:47:25.829Z,45.87
2019-03-19T11:51:35.868Z,45.36
2019-03-19T11:55:43.589Z,47.26
2019-03-19T11:59:51.406Z,46.89
2019-03-19T12:03:59.220Z,47.91
2019-03-19T12:08:07.226Z,48.09
2019-03-19T12:12:14.782Z,48.52
2019-03-19T12:16:23.050Z,49.20
2019-03-19T12:20:31.012Z,47.63
2019-03-19T12:24:38.686Z,46.76
2019-03-19T12:28:46.409Z,47.21
2019-03-19T12:32:54.599Z,47.86
2019-03-19T12:37:02.354Z,48.08
2019-03-19T12:41:10.319Z,47.30
2019-03-19T12:45:18.065Z,47.42
2019-03-19T12:49:26.766Z,47.91
2019-03-19T12:53:34.821Z,47.26
2019-03-19T12:57:42.997Z,47.17
2019-03-19T13:01:51.220Z,47.51
2019-03-19T13:05:59.137Z,47.68
2019-03-19T13:10:08.493Z,47.61
2019-03-19T13:14:16.186Z,48.79
2019-03-19T13:18:24.388Z,49.64
2019-03-19T13:22:32.314Z,49.54
2019-03-19T13:26:40.323Z,51.22
2019-03-19T13:30:48.155Z,51.98
2019-03-19T13:34:55.758Z,51.44
2019-03-19T13:39:04.360Z,52.14
2019-03-19T13:43:12.092Z,53.06
2019-03-19T13:47:19.800Z,53.67
2019-03-19T13:51:28.105Z,53.67
2019-03-19T13:55:35.561Z,53.73
2019-03-19T13:59:43.328Z,57.32
2019-03-19T14:03:51.440Z,56.50
2019-03-19T14:07:59.255Z,56.38
2019-03-19T14:12:07.165Z,57.08
2019-03-19T14:16:15.480Z,58.88
2019-03-19T14:20:23.389Z,58.58
2019-03-19T14:24:31.290Z,58.19
2019-03-19T14:28:39.213Z,57.53
2019-03-19T14:32:46.920Z,58.69
2019-03-19T14:36:55.049Z,58.84
2019-03-19T14:41:03.478Z,58.90
2019-03-19T14:45:11.763Z,59.95
2019-03-19T14:49:19.599Z,60.27
2019-03-19T14:53:27.318Z,61.19
2019-03-19T14:57:35.021Z,61.01
2019-03-19T15:01:43.146Z,60.67
2019-03-19T15:05:50.736Z,61.84
2019-03-19T15:09:58.459Z,61.10
2019-03-19T15:14:07.308Z,60.42
2019-03-19T15:18:14.985Z,60.05
2019-03-19T15:22:32.193Z,60.14
2019-03-19T15:26:33.161Z,62.10
2019-03-19T15:30:41.077Z,61.27
2019-03-19T15:34:51.060Z,61.14
2019-03-19T15:38:58.957Z,61.53
2019-03-19T15:43:06.861Z,62.00
2019-03-19T15:47:15.250Z,62.79
2019-03-19T15:51:23.099Z,63.00
2019-03-19T15:55:30.802Z,63.88
2019-03-19T15:59:38.605Z,63.20
2019-03-19T16:03:46.432Z,63.35
2019-03-19T16:07:54.169Z,63.00
2019-03-19T16:12:02.440Z,63.85
2019-03-19T16:16:10.155Z,64.00
2019-03-19T16:20:18.176Z,64.51
2019-03-19T16:24:26.400Z,64.69
2019-03-19T16:28:34.020Z,65.84
2019-03-19T16:32:41.930Z,66.29
2019-03-19T16:36:50.050Z,66.29
2019-03-19T16:40:57.658Z,66.78
2019-03-19T16:45:06.476Z,67.54
2019-03-19T16:49:14.190Z,67.76
2019-03-19T16:53:22.085Z,68.77
2019-03-19T16:57:29.795Z,69.83
2019-03-19T17:01:37.621Z,71.42
2019-03-19T17:05:45.524Z,70.39
2019-03-19T17:09:53.235Z,70.06
2019-03-19T17:14:01.042Z,71.14
2019-03-19T17:18:09.885Z,71.69
2019-03-19T17:22:17.802Z,70.93
2019-03-19T17:26:25.607Z,71.15
2019-03-19T17:30:33.408Z,71.20
2019-03-19T17:34:41.116Z,71.91
2019-03-19T17:38:48.821Z,71.92
2019-03-19T17:42:56.555Z,71.79
2019-03-19T17:47:04.563Z,71.61
2019-03-19T17:51:12.453Z,71.08
2019-03-19T17:55:20.587Z,71.97
2019-03-19T17:59:28.298Z,72.11
2019-03-19T18:03:36.091Z,71.12
2019-03-19T18:07:44.064Z,71.34
2019-03-19T18:11:54.182Z,74.35
2019-03-19T18:16:01.972Z,74.15
2019-03-19T18:20:10.215Z,73.64
2019-03-19T18:24:18.128Z,72.96
2019-03-19T18:28:25.831Z,73.50
2019-03-19T18:32:35.397Z,76.04
2019-03-19T18:36:43.491Z,77.29
2019-03-19T18:40:51.433Z,77.89
2019-03-19T18:44:59.224Z,76.00
2019-03-19T18:49:06.938Z,75.41
2019-03-19T18:53:15.551Z,74.96
2019-03-19T18:57:23.332Z,74.06
2019-03-19T19:01:31.164Z,74.68
2019-03-19T19:05:38.938Z,75.84
2019-03-19T19:09:47.206Z,76.48
2019-03-19T19:13:55.110Z,76.30
2019-03-19T19:18:03.009Z,74.41
2019-03-19T19:22:10.915Z,73.65
2019-03-19T19:26:18.537Z,73.72
2019-03-19T19:30:27.272Z,74.48
2019-03-19T19:34:35.041Z,76.10
2019-03-19T19:38:43.253Z,74.43
2019-03-19T19:42:50.956Z,73.49
2019-03-19T19:46:58.624Z,73.44
2019-03-19T19:51:06.648Z,73.98
2019-03-19T19:55:14.645Z,74.66
2019-03-19T19:59:23.272Z,75.69
2019-03-19T20:03:31.285Z,75.22
2019-03-19T20:07:39.710Z,74.80
2019-03-19T20:11:47.713Z,74.68
2019-03-19T20:15:55.361Z,75.13
2019-03-19T20:20:03.071Z,76.00
2019-03-19T20:24:11.148Z,76.60
2019-03-19T20:28:18.898Z,76.52
2019-03-19T20:32:26.675Z,75.44
2019-03-19T20:36:34.587Z,76.50
2019-03-19T20:40:42.121Z,76.48
2019-03-19T20:44:51.734Z,76.72
2019-03-19T20:48:59.800Z,75.26
2019-03-19T20:53:07.890Z,76.03
2019-03-19T20:57:15.483Z,75.16
2019-03-19T21:01:23.298Z,76.08
2019-03-19T21:05:31.002Z,75.77
2019-03-19T21:09:39.345Z,77.17
2019-03-19T21:13:47.342Z,77.28
2019-03-19T21:17:55.092Z,76.37
2019-03-19T21:22:03.070Z,75.53
2019-03-19T21:26:10.773Z,76.87
2019-03-19T21:30:18.564Z,77.85
2019-03-19T21:34:26.287Z,77.80
2019-03-19T21:38:34.090Z,76.08
2019-03-19T21:42:41.706Z,75.29
2019-03-19T21:46:49.411Z,74.80
2019-03-19T21:50:57.211Z,74.58
2019-03-19T21:55:06.567Z,73.46
2019-03-19T21:59:14.812Z,73.63
2019-03-19T22:03:23.426Z,73.45
2019-03-19T22:07:31.114Z,74.22
2019-03-19T22:11:38.926Z,73.32
2019-03-19T22:15:46.590Z,73.95
2019-03-19T22:19:54.759Z,75.23
2019-03-19T22:24:02.878Z,74.19
2019-03-19T22:28:10.475Z,73.49
2019-03-19T22:32:18.270Z,73.35
2019-03-19T22:36:26.078Z,73.59
2019-03-19T22:40:33.784Z,74.34
2019-03-19T22:44:41.696Z,74.24
2019-03-19T22:48:49.712Z,75.46
2019-03-19T22:52:57.512Z,75.63
2019-03-19T22:57:05.752Z,74.44
2019-03-19T23:01:14.769Z,74.62
2019-03-19T23:05:22.505Z,74.46
2019-03-19T23:09:30.737Z,73.82
2019-03-19T23:13:38.633Z,74.96
2019-03-19T23:17:46.440Z,74.72
2019-03-19T23:21:54.240Z,75.73
2019-03-19T23:26:02.055Z,76.04
2019-03-19T23:30:10.224Z,76.46
2019-03-19T23:34:18.903Z,77.40
2019-03-19T23:38:26.705Z,76.72
2019-03-19T23:42:35.015Z,76.60
2019-03-19T23:46:43.319Z,77.00
2019-03-19T23:50:51.220Z,76.97
2019-03-19T23:54:59.485Z,77.63
2019-03-19T23:59:07.290Z,77.71
